sensor_id;sensor_type;location;lat;lon;timestamp;temperature;humidity
1429;DHT22;708;51.442;7.016;2024-03-23T00:51:43;9.30;99.90
1429;DHT22;708;51.442;7.016;2024-03-23T00:54:09;9.30;99.90
1429;DHT22;708;51.442;7.016;2024-03-23T00:56:37;9.30;99.90
1429;DHT22;708;51.442;7.016;2024-03-23T00:59:03;9.30;99.90
1429;DHT22;708;51.442;7.016;2024-03-23T01:01:30;9.30;99.90
1429;DHT22;708;51.442;7.016;2024-03-23T01:03:55;9.30;99.90
1429;DHT22;708;51.442;7.016;2024-03-23T01:06:22;9.30;99.90
1429;DHT22;708;51.442;7.016;2024-03-23T01:08:49;9.30;99.90
1429;DHT22;708;51.442;7.016;2024-03-23T01:11:16;9.20;99.90
1429;DHT22;708;51.442;7.016;2024-03-23T01:13:42;9.20;99.90
1429;DHT22;708;51.442;7.016;2024-03-23T01:16:08;9.20;99.90
1429;DHT22;708;51.442;7.016;2024-03-23T01:18:34;9.20;99.90
1429;DHT22;708;51.442;7.016;2024-03-23T01:21:01;9.20;99.90
1429;DHT22;708;51.442;7.016;2024-03-23T01:23:27;9.20;99.90
1429;DHT22;708;51.442;7.016;2024-03-23T01:25:55;9.10;99.90
1429;DHT22;708;51.442;7.016;2024-03-23T01:28:21;9.10;99.90
1429;DHT22;708;51.442;7.016;2024-03-23T01:30:49;9.20;99.90
1429;DHT22;708;51.442;7.016;2024-03-23T01:33:15;9.10;99.90
1429;DHT22;708;51.442;7.016;2024-03-23T01:35:42;9.00;99.90
1429;DHT22;708;51.442;7.016;2024-03-23T01:38:07;9.00;99.90
1429;DHT22;708;51.442;7.016;2024-03-23T01:40:34;9.00;99.90
1429;DHT22;708;51.442;7.016;2024-03-23T01:43:04;9.00;99.90
1429;DHT22;708;51.442;7.016;2024-03-23T01:45:31;8.80;99.90
1429;DHT22;708;51.442;7.016;2024-03-23T01:47:58;8.80;99.90
1429;DHT22;708;51.442;7.016;2024-03-23T01:50:25;8.80;99.90
1429;DHT22;708;51.442;7.016;2024-03-23T01:52:51;8.80;99.90
1429;DHT22;708;51.442;7.016;2024-03-23T01:55:18;8.80;99.90
1429;DHT22;708;51.442;7.016;2024-03-23T01:57:44;8.90;99.90
1429;DHT22;708;51.442;7.016;2024-03-23T02:00:13;8.90;99.90
1429;DHT22;708;51.442;7.016;2024-03-23T02:02:43;8.90;99.90
1429;DHT22;708;51.442;7.016;2024-03-23T02:05:10;8.90;99.90
1429;DHT22;708;51.442;7.016;2024-03-23T02:07:37;9.00;99.90
1429;DHT22;708;51.442;7.016;2024-03-23T02:10:06;9.00;99.90
1429;DHT22;708;51.442;7.016;2024-03-23T02:12:31;9.00;99.90
1429;DHT22;708;51.442;7.016;2024-03-23T02:14:58;9.00;99.90
1429;DHT22;708;51.442;7.016;2024-03-23T02:17:25;9.00;99.90
1429;DHT22;708;51.442;7.016;2024-03-23T02:19:52;9.10;99.90
1429;DHT22;708;51.442;7.016;2024-03-23T02:22:18;9.00;99.90
1429;DHT22;708;51.442;7.016;2024-03-23T02:24:46;9.00;99.90
1429;DHT22;708;51.442;7.016;2024-03-23T02:27:12;9.00;99.90
1429;DHT22;708;51.442;7.016;2024-03-23T02:29:39;9.00;99.90
1429;DHT22;708;51.442;7.016;2024-03-23T02:32:05;9.10;99.90
1429;DHT22;708;51.442;7.016;2024-03-23T02:34:34;9.10;99.90
1429;DHT22;708;51.442;7.016;2024-03-23T02:37:00;9.10;99.90
1429;DHT22;708;51.442;7.016;2024-03-23T02:39:26;9.10;99.90
1429;DHT22;708;51.442;7.016;2024-03-23T02:41:54;9.10;99.90
1429;DHT22;708;51.442;7.016;2024-03-23T02:44:20;9.20;99.90
1429;DHT22;708;51.442;7.016;2024-03-23T02:46:46;9.10;99.90
1429;DHT22;708;51.442;7.016;2024-03-23T02:49:14;9.10;99.90
1429;DHT22;708;51.442;7.016;2024-03-23T02:51:39;9.10;99.90
1429;DHT22;708;51.442;7.016;2024-03-23T02:54:06;9.10;99.90
1429;DHT22;708;51.442;7.016;2024-03-23T02:56:32;9.10;99.90
1429;DHT22;708;51.442;7.016;2024-03-23T02:59:01;9.10;99.90
1429;DHT22;708;51.442;7.016;2024-03-23T03:01:26;9.00;99.90
1429;DHT22;708;51.442;7.016;2024-03-23T03:03:53;9.10;99.90
1429;DHT22;708;51.442;7.016;2024-03-23T03:06:23;9.10;99.90
1429;DHT22;708;51.442;7.016;2024-03-23T03:08:50;9.10;99.90
1429;DHT22;708;51.442;7.016;2024-03-23T03:11:16;9.10;99.90
1429;DHT22;708;51.442;7.016;2024-03-23T03:13:43;9.10;99.90
1429;DHT22;708;51.442;7.016;2024-03-23T03:16:10;9.10;99.90
1429;DHT22;708;51.442;7.016;2024-03-23T03:18:37;9.20;99.90
1429;DHT22;708;51.442;7.016;2024-03-23T03:21:03;9.10;99.90
1429;DHT22;708;51.442;7.016;2024-03-23T03:23:31;9.10;99.90
1429;DHT22;708;51.442;7.016;2024-03-23T03:25:57;9.20;99.90
1429;DHT22;708;51.442;7.016;2024-03-23T03:28:23;9.20;99.90
1429;DHT22;708;51.442;7.016;2024-03-23T03:30:49;9.20;99.90
1429;DHT22;708;51.442;7.016;2024-03-23T03:33:17;9.20;99.90
1429;DHT22;708;51.442;7.016;2024-03-23T03:35:43;9.20;99.90
1429;DHT22;708;51.442;7.016;2024-03-23T03:38:11;9.10;99.90
1429;DHT22;708;51.442;7.016;2024-03-23T03:40:37;9.10;99.90
1429;DHT22;708;51.442;7.016;2024-03-23T03:43:03;9.10;99.90
1429;DHT22;708;51.442;7.016;2024-03-23T03:45:29;9.10;99.90
1429;DHT22;708;51.442;7.016;2024-03-23T03:47:56;9.10;99.90
1429;DHT22;708;51.442;7.016;2024-03-23T03:50:23;9.00;99.90
1429;DHT22;708;51.442;7.016;2024-03-23T03:52:50;9.00;99.90
1429;DHT22;708;51.442;7.016;2024-03-23T03:55:16;9.00;99.90
1429;DHT22;708;51.442;7.016;2024-03-23T03:57:43;9.00;99.90
1429;DHT22;708;51.442;7.016;2024-03-23T04:00:11;8.90;99.90
1429;DHT22;708;51.442;7.016;2024-03-23T04:02:37;8.90;99.90
1429;DHT22;708;51.442;7.016;2024-03-23T04:05:04;8.90;99.90
1429;DHT22;708;51.442;7.016;2024-03-23T04:07:31;8.90;99.90
1429;DHT22;708;51.442;7.016;2024-03-23T04:09:57;8.90;99.90
1429;DHT22;708;51.442;7.016;2024-03-23T04:12:23;8.90;99.90
1429;DHT22;708;51.442;7.016;2024-03-23T04:14:50;8.90;99.90
1429;DHT22;708;51.442;7.016;2024-03-23T04:17:16;8.90;99.90
1429;DHT22;708;51.442;7.016;2024-03-23T04:19:43;8.80;99.90
1429;DHT22;708;51.442;7.016;2024-03-23T04:22:09;8.80;99.90
1429;DHT22;708;51.442;7.016;2024-03-23T04:24:37;8.80;99.90
1429;DHT22;708;51.442;7.016;2024-03-23T04:27:03;8.80;99.90
1429;DHT22;708;51.442;7.016;2024-03-23T04:29:30;8.80;99.90
1429;DHT22;708;51.442;7.016;2024-03-23T04:31:56;8.80;99.90
1429;DHT22;708;51.442;7.016;2024-03-23T04:34:22;8.80;99.90
1429;DHT22;708;51.442;7.016;2024-03-23T04:36:48;8.70;99.90
1429;DHT22;708;51.442;7.016;2024-03-23T04:39:15;8.80;99.90
1429;DHT22;708;51.442;7.016;2024-03-23T04:41:44;8.70;99.90
1429;DHT22;708;51.442;7.016;2024-03-23T04:44:10;8.80;99.90
1429;DHT22;708;51.442;7.016;2024-03-23T04:46:37;8.80;99.90
1429;DHT22;708;51.442;7.016;2024-03-23T04:49:04;8.70;99.90
1429;DHT22;708;51.442;7.016;2024-03-23T04:51:35;8.70;99.90
1429;DHT22;708;51.442;7.016;2024-03-23T04:54:03;8.70;99.90
1429;DHT22;708;51.442;7.016;2024-03-23T04:56:31;8.70;99.90
1429;DHT22;708;51.442;7.016;2024-03-23T04:58:58;8.70;99.90
1429;DHT22;708;51.442;7.016;2024-03-23T05:01:27;8.60;99.90
1429;DHT22;708;51.442;7.016;2024-03-23T05:03:52;8.60;99.90
1429;DHT22;708;51.442;7.016;2024-03-23T05:06:19;8.60;99.90
1429;DHT22;708;51.442;7.016;2024-03-23T05:08:45;8.60;99.90
1429;DHT22;708;51.442;7.016;2024-03-23T05:11:12;8.60;99.90
1429;DHT22;708;51.442;7.016;2024-03-23T05:13:38;8.60;99.90
1429;DHT22;708;51.442;7.016;2024-03-23T05:16:06;8.70;99.90
1429;DHT22;708;51.442;7.016;2024-03-23T05:18:32;8.60;99.90
1429;DHT22;708;51.442;7.016;2024-03-23T05:20:58;8.70;99.90
1429;DHT22;708;51.442;7.016;2024-03-23T05:23:24;8.70;99.90
1429;DHT22;708;51.442;7.016;2024-03-23T05:25:51;8.70;99.90
1429;DHT22;708;51.442;7.016;2024-03-23T05:28:17;8.70;99.90
1429;DHT22;708;51.442;7.016;2024-03-23T05:30:44;8.70;99.90
1429;DHT22;708;51.442;7.016;2024-03-23T05:33:16;8.70;99.90
1429;DHT22;708;51.442;7.016;2024-03-23T05:35:43;8.70;99.90
1429;DHT22;708;51.442;7.016;2024-03-23T05:38:09;8.60;99.90
1429;DHT22;708;51.442;7.016;2024-03-23T05:40:35;8.60;99.90
1429;DHT22;708;51.442;7.016;2024-03-23T05:43:03;8.60;99.90
1429;DHT22;708;51.442;7.016;2024-03-23T05:45:30;8.60;99.90
1429;DHT22;708;51.442;7.016;2024-03-23T05:47:55;8.60;99.90
1429;DHT22;708;51.442;7.016;2024-03-23T05:50:27;8.60;99.90
1429;DHT22;708;51.442;7.016;2024-03-23T05:53:01;8.60;99.90
1429;DHT22;708;51.442;7.016;2024-03-23T05:55:30;8.60;99.90
1429;DHT22;708;51.442;7.016;2024-03-23T05:57:56;8.60;99.90
1429;DHT22;708;51.442;7.016;2024-03-23T06:00:23;8.50;99.90
1429;DHT22;708;51.442;7.016;2024-03-23T06:02:51;8.50;99.90
1429;DHT22;708;51.442;7.016;2024-03-23T06:05:18;8.50;99.90
1429;DHT22;708;51.442;7.016;2024-03-23T06:07:45;8.60;99.90
1429;DHT22;708;51.442;7.016;2024-03-23T06:10:12;8.50;99.90
1429;DHT22;708;51.442;7.016;2024-03-23T06:12:38;8.60;99.90
1429;DHT22;708;51.442;7.016;2024-03-23T06:15:05;8.60;99.90
1429;DHT22;708;51.442;7.016;2024-03-23T06:17:35;8.70;99.90
1429;DHT22;708;51.442;7.016;2024-03-23T06:20:02;8.70;99.90
1429;DHT22;708;51.442;7.016;2024-03-23T06:22:28;8.70;99.90
1429;DHT22;708;51.442;7.016;2024-03-23T06:24:57;8.80;99.90
1429;DHT22;708;51.442;7.016;2024-03-23T06:27:23;8.80;99.90
1429;DHT22;708;51.442;7.016;2024-03-23T06:29:49;8.80;99.90
1429;DHT22;708;51.442;7.016;2024-03-23T06:32:15;8.80;99.90
1429;DHT22;708;51.442;7.016;2024-03-23T06:34:42;8.90;99.90
1429;DHT22;708;51.442;7.016;2024-03-23T06:37:07;8.90;99.90
1429;DHT22;708;51.442;7.016;2024-03-23T06:39:36;8.90;99.90
1429;DHT22;708;51.442;7.016;2024-03-23T06:42:04;8.90;99.90
1429;DHT22;708;51.442;7.016;2024-03-23T06:44:31;9.10;99.90
1429;DHT22;708;51.442;7.016;2024-03-23T06:46:57;9.50;99.90
1429;DHT22;708;51.442;7.016;2024-03-23T06:49:33;9.80;99.90
1429;DHT22;708;51.442;7.016;2024-03-23T06:51:59;9.80;99.90
1429;DHT22;708;51.442;7.016;2024-03-23T06:54:26;9.80;99.90
1429;DHT22;708;51.442;7.016;2024-03-23T06:56:52;9.90;99.90
1429;DHT22;708;51.442;7.016;2024-03-23T06:59:20;10.40;99.90
1429;DHT22;708;51.442;7.016;2024-03-23T07:01:46;10.80;99.90
1429;DHT22;708;51.442;7.016;2024-03-23T07:04:12;11.30;99.90
1429;DHT22;708;51.442;7.016;2024-03-23T07:06:42;11.50;99.90
1429;DHT22;708;51.442;7.016;2024-03-23T07:09:09;11.90;99.90
1429;DHT22;708;51.442;7.016;2024-03-23T07:11:35;12.50;99.90
1429;DHT22;708;51.442;7.016;2024-03-23T07:14:02;13.00;99.90
1429;DHT22;708;51.442;7.016;2024-03-23T07:16:30;13.20;99.90
1429;DHT22;708;51.442;7.016;2024-03-23T07:18:56;14.00;99.90
1429;DHT22;708;51.442;7.016;2024-03-23T07:21:22;14.40;99.90
1429;DHT22;708;51.442;7.016;2024-03-23T07:23:49;14.60;99.90
1429;DHT22;708;51.442;7.016;2024-03-23T07:26:15;15.50;99.90
1429;DHT22;708;51.442;7.016;2024-03-23T07:28:43;16.50;99.90
1429;DHT22;708;51.442;7.016;2024-03-23T07:31:10;17.00;99.90
1429;DHT22;708;51.442;7.016;2024-03-23T07:33:42;17.60;99.90
1429;DHT22;708;51.442;7.016;2024-03-23T07:36:08;18.00;99.90
1429;DHT22;708;51.442;7.016;2024-03-23T07:38:35;18.70;99.90
1429;DHT22;708;51.442;7.016;2024-03-23T07:41:05;19.70;99.90
1429;DHT22;708;51.442;7.016;2024-03-23T07:43:32;20.40;97.10
1429;DHT22;708;51.442;7.016;2024-03-23T07:45:58;20.60;95.40
1429;DHT22;708;51.442;7.016;2024-03-23T07:48:24;20.80;93.70
1429;DHT22;708;51.442;7.016;2024-03-23T07:50:59;20.60;93.40
1429;DHT22;708;51.442;7.016;2024-03-23T07:53:26;20.70;92.20
1429;DHT22;708;51.442;7.016;2024-03-23T07:55:54;20.10;92.80
1429;DHT22;708;51.442;7.016;2024-03-23T07:58:21;19.70;94.20
1429;DHT22;708;51.442;7.016;2024-03-23T08:00:47;19.40;94.30
1429;DHT22;708;51.442;7.016;2024-03-23T08:03:14;19.80;94.80
1429;DHT22;708;51.442;7.016;2024-03-23T08:05:39;20.20;94.20
1429;DHT22;708;51.442;7.016;2024-03-23T08:08:08;20.60;92.30
1429;DHT22;708;51.442;7.016;2024-03-23T08:10:33;21.10;91.10
1429;DHT22;708;51.442;7.016;2024-03-23T08:13:00;21.10;89.90
1429;DHT22;708;51.442;7.016;2024-03-23T08:15:26;20.50;88.60
1429;DHT22;708;51.442;7.016;2024-03-23T08:17:53;19.80;90.40
1429;DHT22;708;51.442;7.016;2024-03-23T08:20:18;19.50;92.40
1429;DHT22;708;51.442;7.016;2024-03-23T08:22:45;19.00;91.80
1429;DHT22;708;51.442;7.016;2024-03-23T08:25:12;18.10;92.80
1429;DHT22;708;51.442;7.016;2024-03-23T08:27:39;17.70;92.80
1429;DHT22;708;51.442;7.016;2024-03-23T08:30:06;17.30;95.30
1429;DHT22;708;51.442;7.016;2024-03-23T08:32:32;16.80;95.70
1429;DHT22;708;51.442;7.016;2024-03-23T08:34:58;16.80;1.00
1429;DHT22;708;51.442;7.016;2024-03-23T08:37:25;17.50;97.70
1429;DHT22;708;51.442;7.016;2024-03-23T08:39:51;18.30;96.40
1429;DHT22;708;51.442;7.016;2024-03-23T08:42:19;19.30;94.00
1429;DHT22;708;51.442;7.016;2024-03-23T08:44:51;20.40;88.00
1429;DHT22;708;51.442;7.016;2024-03-23T08:47:18;20.60;84.00
1429;DHT22;708;51.442;7.016;2024-03-23T08:49:44;19.90;83.40
1429;DHT22;708;51.442;7.016;2024-03-23T08:52:11;19.20;83.90
1429;DHT22;708;51.442;7.016;2024-03-23T08:54:37;18.40;87.60
1429;DHT22;708;51.442;7.016;2024-03-23T08:57:04;17.30;90.30
1429;DHT22;708;51.442;7.016;2024-03-23T08:59:31;16.20;92.50
1429;DHT22;708;51.442;7.016;2024-03-23T09:01:58;15.40;99.90
1429;DHT22;708;51.442;7.016;2024-03-23T09:04:24;14.70;1.00
1429;DHT22;708;51.442;7.016;2024-03-23T09:06:54;14.00;99.90
1429;DHT22;708;51.442;7.016;2024-03-23T09:09:20;13.30;71.10
1429;DHT22;708;51.442;7.016;2024-03-23T09:11:51;12.90;99.90
1429;DHT22;708;51.442;7.016;2024-03-23T09:14:16;12.60;99.90
1429;DHT22;708;51.442;7.016;2024-03-23T09:16:45;12.50;99.90
1429;DHT22;708;51.442;7.016;2024-03-23T09:19:11;12.90;99.90
1429;DHT22;708;51.442;7.016;2024-03-23T09:21:38;13.40;99.90
1429;DHT22;708;51.442;7.016;2024-03-23T09:24:07;13.50;99.90
1429;DHT22;708;51.442;7.016;2024-03-23T09:26:34;13.60;99.90
1429;DHT22;708;51.442;7.016;2024-03-23T09:28:59;13.80;99.90
1429;DHT22;708;51.442;7.016;2024-03-23T09:31:26;14.40;99.90
1429;DHT22;708;51.442;7.016;2024-03-23T09:33:54;15.60;1.00
1429;DHT22;708;51.442;7.016;2024-03-23T09:36:24;17.00;99.90
1429;DHT22;708;51.442;7.016;2024-03-23T09:38:50;18.30;95.80
1429;DHT22;708;51.442;7.016;2024-03-23T09:41:17;18.70;93.50
1429;DHT22;708;51.442;7.016;2024-03-23T09:43:45;18.70;92.00
1429;DHT22;708;51.442;7.016;2024-03-23T09:46:14;18.30;91.40
1429;DHT22;708;51.442;7.016;2024-03-23T09:48:40;18.10;92.50
1429;DHT22;708;51.442;7.016;2024-03-23T09:51:10;18.00;91.50
1429;DHT22;708;51.442;7.016;2024-03-23T09:53:43;17.40;92.00
1429;DHT22;708;51.442;7.016;2024-03-23T09:56:11;17.20;93.90
1429;DHT22;708;51.442;7.016;2024-03-23T09:58:36;17.20;93.60
1429;DHT22;708;51.442;7.016;2024-03-23T10:01:03;16.90;93.30
1429;DHT22;708;51.442;7.016;2024-03-23T10:03:47;16.50;93.10
1429;DHT22;708;51.442;7.016;2024-03-23T10:06:21;16.00;93.10
1429;DHT22;708;51.442;7.016;2024-03-23T10:08:47;15.60;95.10
1429;DHT22;708;51.442;7.016;2024-03-23T10:11:15;15.30;95.70
1429;DHT22;708;51.442;7.016;2024-03-23T10:13:42;15.30;96.20
1429;DHT22;708;51.442;7.016;2024-03-23T10:16:09;15.30;94.90
1429;DHT22;708;51.442;7.016;2024-03-23T10:18:37;15.40;93.90
1429;DHT22;708;51.442;7.016;2024-03-23T10:21:08;15.40;94.40
1429;DHT22;708;51.442;7.016;2024-03-23T10:23:36;15.30;94.20
1429;DHT22;708;51.442;7.016;2024-03-23T10:26:27;15.20;92.60
1429;DHT22;708;51.442;7.016;2024-03-23T10:28:58;15.20;93.10
1429;DHT22;708;51.442;7.016;2024-03-23T10:31:26;15.10;92.50
1429;DHT22;708;51.442;7.016;2024-03-23T10:33:52;14.90;92.50
1429;DHT22;708;51.442;7.016;2024-03-23T10:36:20;14.70;91.80
1429;DHT22;708;51.442;7.016;2024-03-23T10:38:50;14.50;91.90
1429;DHT22;708;51.442;7.016;2024-03-23T10:41:19;14.40;92.30
1429;DHT22;708;51.442;7.016;2024-03-23T10:43:46;14.40;93.60
1429;DHT22;708;51.442;7.016;2024-03-23T10:46:13;14.30;92.40
1429;DHT22;708;51.442;7.016;2024-03-23T10:48:39;14.20;93.50
1429;DHT22;708;51.442;7.016;2024-03-23T10:51:07;13.90;94.90
1429;DHT22;708;51.442;7.016;2024-03-23T10:53:34;13.40;99.90
1429;DHT22;708;51.442;7.016;2024-03-23T10:56:04;12.40;99.90
1429;DHT22;708;51.442;7.016;2024-03-23T10:58:32;11.50;12.30
1429;DHT22;708;51.442;7.016;2024-03-23T11:00:59;10.60;1.00
1429;DHT22;708;51.442;7.016;2024-03-23T11:03:30;10.10;37.70
1429;DHT22;708;51.442;7.016;2024-03-23T11:05:57;9.60;1.00
1429;DHT22;708;51.442;7.016;2024-03-23T11:08:34;9.30;1.00
1429;DHT22;708;51.442;7.016;2024-03-23T11:11:21;9.20;99.90
1429;DHT22;708;51.442;7.016;2024-03-23T11:14:42;9.20;1.00
1429;DHT22;708;51.442;7.016;2024-03-23T11:17:08;9.20;99.90
1429;DHT22;708;51.442;7.016;2024-03-23T11:19:37;9.60;1.00
1429;DHT22;708;51.442;7.016;2024-03-23T11:22:03;9.90;55.30
1429;DHT22;708;51.442;7.016;2024-03-23T11:24:37;10.00;1.00
1429;DHT22;708;51.442;7.016;2024-03-23T11:27:15;10.20;83.30
1429;DHT22;708;51.442;7.016;2024-03-23T11:29:42;10.30;1.00
1429;DHT22;708;51.442;7.016;2024-03-23T11:32:10;10.40;1.00
1429;DHT22;708;51.442;7.016;2024-03-23T11:34:40;10.40;33.60
1429;DHT22;708;51.442;7.016;2024-03-23T11:37:11;10.50;99.90
1429;DHT22;708;51.442;7.016;2024-03-23T11:39:46;10.70;99.90
1429;DHT22;708;51.442;7.016;2024-03-23T11:42:17;10.70;99.90
1429;DHT22;708;51.442;7.016;2024-03-23T11:44:44;10.70;34.20
1429;DHT22;708;51.442;7.016;2024-03-23T11:47:11;10.70;99.90
1429;DHT22;708;51.442;7.016;2024-03-23T11:49:43;10.80;1.00
1429;DHT22;708;51.442;7.016;2024-03-23T11:52:09;10.80;1.00
1429;DHT22;708;51.442;7.016;2024-03-23T11:54:35;10.80;99.90
1429;DHT22;708;51.442;7.016;2024-03-23T11:57:02;10.90;99.90
1429;DHT22;708;51.442;7.016;2024-03-23T11:59:32;11.00;99.90
1429;DHT22;708;51.442;7.016;2024-03-23T12:01:58;11.10;99.90
1429;DHT22;708;51.442;7.016;2024-03-23T12:04:26;11.30;87.60
1429;DHT22;708;51.442;7.016;2024-03-23T12:07:09;11.40;1.00
1429;DHT22;708;51.442;7.016;2024-03-23T12:09:36;11.60;1.00
1429;DHT22;708;51.442;7.016;2024-03-23T12:12:07;11.90;99.90
1429;DHT22;708;51.442;7.016;2024-03-23T12:14:35;12.10;99.90
1429;DHT22;708;51.442;7.016;2024-03-23T12:17:08;12.00;99.90
1429;DHT22;708;51.442;7.016;2024-03-23T12:19:36;11.90;99.90
1429;DHT22;708;51.442;7.016;2024-03-23T12:22:03;11.90;99.90
1429;DHT22;708;51.442;7.016;2024-03-23T12:24:32;11.90;99.90
1429;DHT22;708;51.442;7.016;2024-03-23T12:27:02;11.80;99.90
1429;DHT22;708;51.442;7.016;2024-03-23T12:29:30;11.70;99.90
1429;DHT22;708;51.442;7.016;2024-03-23T12:32:01;11.90;99.90
1429;DHT22;708;51.442;7.016;2024-03-23T12:34:28;12.00;99.90
1429;DHT22;708;51.442;7.016;2024-03-23T12:36:56;12.20;99.90
1429;DHT22;708;51.442;7.016;2024-03-23T12:39:27;12.00;99.90
1429;DHT22;708;51.442;7.016;2024-03-23T12:41:53;12.00;99.90
1429;DHT22;708;51.442;7.016;2024-03-23T12:44:20;12.00;99.90
1429;DHT22;708;51.442;7.016;2024-03-23T12:46:46;12.00;99.90
1429;DHT22;708;51.442;7.016;2024-03-23T12:49:14;12.00;99.90
1429;DHT22;708;51.442;7.016;2024-03-23T12:51:52;12.00;99.90
1429;DHT22;708;51.442;7.016;2024-03-23T12:54:24;12.20;99.90
1429;DHT22;708;51.442;7.016;2024-03-23T12:56:50;12.50;99.90
1429;DHT22;708;51.442;7.016;2024-03-23T12:59:17;12.80;99.90
1429;DHT22;708;51.442;7.016;2024-03-23T13:01:46;13.10;99.90
1429;DHT22;708;51.442;7.016;2024-03-23T13:04:17;13.20;99.90
1429;DHT22;708;51.442;7.016;2024-03-23T13:06:43;13.00;99.90
1429;DHT22;708;51.442;7.016;2024-03-23T13:09:09;12.60;99.90
1429;DHT22;708;51.442;7.016;2024-03-23T13:11:36;12.20;99.90
1429;DHT22;708;51.442;7.016;2024-03-23T13:14:02;11.70;1.00
1429;DHT22;708;51.442;7.016;2024-03-23T13:16:29;11.40;1.00
1429;DHT22;708;51.442;7.016;2024-03-23T13:18:56;11.30;1.00
1429;DHT22;708;51.442;7.016;2024-03-23T13:21:24;11.60;1.00
1429;DHT22;708;51.442;7.016;2024-03-23T13:23:50;12.00;1.00
1429;DHT22;708;51.442;7.016;2024-03-23T13:26:16;12.30;99.90
1429;DHT22;708;51.442;7.016;2024-03-23T13:28:43;12.40;99.90
1429;DHT22;708;51.442;7.016;2024-03-23T13:31:10;12.40;99.90
1429;DHT22;708;51.442;7.016;2024-03-23T13:33:36;12.20;99.90
1429;DHT22;708;51.442;7.016;2024-03-23T13:36:03;11.90;99.90
1429;DHT22;708;51.442;7.016;2024-03-23T13:38:31;11.50;1.00
1429;DHT22;708;51.442;7.016;2024-03-23T13:40:58;11.50;1.00
1429;DHT22;708;51.442;7.016;2024-03-23T13:43:26;11.70;99.90
1429;DHT22;708;51.442;7.016;2024-03-23T13:45:54;12.10;1.00
1429;DHT22;708;51.442;7.016;2024-03-23T13:48:23;12.40;1.00
1429;DHT22;708;51.442;7.016;2024-03-23T13:50:57;12.30;99.90
1429;DHT22;708;51.442;7.016;2024-03-23T13:53:24;12.10;99.90
1429;DHT22;708;51.442;7.016;2024-03-23T13:55:51;11.90;99.90
1429;DHT22;708;51.442;7.016;2024-03-23T13:58:21;11.70;99.90
1429;DHT22;708;51.442;7.016;2024-03-23T14:00:47;11.70;99.90
1429;DHT22;708;51.442;7.016;2024-03-23T14:03:14;11.70;99.90
1429;DHT22;708;51.442;7.016;2024-03-23T14:05:40;11.90;99.90
1429;DHT22;708;51.442;7.016;2024-03-23T14:08:08;12.20;99.90
1429;DHT22;708;51.442;7.016;2024-03-23T14:10:34;12.50;99.90
1429;DHT22;708;51.442;7.016;2024-03-23T14:13:03;12.80;99.90
1429;DHT22;708;51.442;7.016;2024-03-23T14:15:29;12.90;99.90
1429;DHT22;708;51.442;7.016;2024-03-23T14:17:56;12.90;99.90
1429;DHT22;708;51.442;7.016;2024-03-23T14:20:23;12.80;99.90
1429;DHT22;708;51.442;7.016;2024-03-23T14:22:50;12.70;99.90
1429;DHT22;708;51.442;7.016;2024-03-23T14:25:17;12.70;99.90
1429;DHT22;708;51.442;7.016;2024-03-23T14:27:44;12.60;99.90
1429;DHT22;708;51.442;7.016;2024-03-23T14:30:12;12.50;99.90
1429;DHT22;708;51.442;7.016;2024-03-23T14:32:39;12.60;99.90
1429;DHT22;708;51.442;7.016;2024-03-23T14:35:09;12.80;99.90
1429;DHT22;708;51.442;7.016;2024-03-23T14:37:37;12.60;99.90
1429;DHT22;708;51.442;7.016;2024-03-23T14:40:04;12.50;99.90
1429;DHT22;708;51.442;7.016;2024-03-23T14:42:32;12.30;99.90
1429;DHT22;708;51.442;7.016;2024-03-23T14:44:58;12.00;99.90
1429;DHT22;708;51.442;7.016;2024-03-23T14:47:26;11.90;99.90
1429;DHT22;708;51.442;7.016;2024-03-23T14:49:52;11.80;99.90
1429;DHT22;708;51.442;7.016;2024-03-23T14:52:20;11.80;99.90
1429;DHT22;708;51.442;7.016;2024-03-23T14:54:46;11.70;99.90
1429;DHT22;708;51.442;7.016;2024-03-23T14:57:13;11.60;99.90
1429;DHT22;708;51.442;7.016;2024-03-23T14:59:41;11.40;99.90
1429;DHT22;708;51.442;7.016;2024-03-23T15:02:08;11.20;99.90
1429;DHT22;708;51.442;7.016;2024-03-23T15:04:35;11.00;99.90
1429;DHT22;708;51.442;7.016;2024-03-23T15:07:02;11.00;99.90
1429;DHT22;708;51.442;7.016;2024-03-23T15:09:34;11.00;99.90
1429;DHT22;708;51.442;7.016;2024-03-23T15:12:03;11.00;99.90
1429;DHT22;708;51.442;7.016;2024-03-23T15:14:29;11.10;99.90
1429;DHT22;708;51.442;7.016;2024-03-23T15:16:56;11.10;99.90
1429;DHT22;708;51.442;7.016;2024-03-23T15:19:22;11.20;99.90
1429;DHT22;708;51.442;7.016;2024-03-23T15:21:51;11.20;99.90
1429;DHT22;708;51.442;7.016;2024-03-23T15:24:16;11.40;99.90
1429;DHT22;708;51.442;7.016;2024-03-23T15:26:43;11.60;99.90
1429;DHT22;708;51.442;7.016;2024-03-23T15:29:09;11.80;99.90
1429;DHT22;708;51.442;7.016;2024-03-23T15:31:42;11.90;99.90
1429;DHT22;708;51.442;7.016;2024-03-23T15:34:08;11.80;99.90
1429;DHT22;708;51.442;7.016;2024-03-23T15:36:42;11.80;99.90
1429;DHT22;708;51.442;7.016;2024-03-23T15:39:25;11.80;99.90
1429;DHT22;708;51.442;7.016;2024-03-23T15:42:01;11.80;99.90
1429;DHT22;708;51.442;7.016;2024-03-23T15:44:29;11.80;99.90
1429;DHT22;708;51.442;7.016;2024-03-23T15:46:56;11.80;99.90
1429;DHT22;708;51.442;7.016;2024-03-23T15:49:22;11.80;99.90
1429;DHT22;708;51.442;7.016;2024-03-23T15:51:49;11.80;99.90
1429;DHT22;708;51.442;7.016;2024-03-23T15:54:16;11.80;99.90
1429;DHT22;708;51.442;7.016;2024-03-23T15:56:43;11.60;99.90
1429;DHT22;708;51.442;7.016;2024-03-23T15:59:09;11.50;99.90
1429;DHT22;708;51.442;7.016;2024-03-23T16:01:35;11.40;99.90
1429;DHT22;708;51.442;7.016;2024-03-23T16:04:03;11.20;99.90
1429;DHT22;708;51.442;7.016;2024-03-23T16:06:30;11.00;99.90
1429;DHT22;708;51.442;7.016;2024-03-23T16:08:56;10.80;99.90
1429;DHT22;708;51.442;7.016;2024-03-23T16:11:24;10.80;99.90
1429;DHT22;708;51.442;7.016;2024-03-23T16:13:50;10.70;99.90
1429;DHT22;708;51.442;7.016;2024-03-23T16:16:17;10.60;99.90
1429;DHT22;708;51.442;7.016;2024-03-23T16:18:46;10.60;99.90
1429;DHT22;708;51.442;7.016;2024-03-23T16:21:12;10.60;99.90
1429;DHT22;708;51.442;7.016;2024-03-23T16:23:38;10.60;99.90
1429;DHT22;708;51.442;7.016;2024-03-23T16:26:07;10.50;99.90
1429;DHT22;708;51.442;7.016;2024-03-23T16:28:35;10.50;99.90
1429;DHT22;708;51.442;7.016;2024-03-23T16:31:03;10.50;99.90
1429;DHT22;708;51.442;7.016;2024-03-23T16:33:30;10.40;99.90
1429;DHT22;708;51.442;7.016;2024-03-23T16:36:00;10.40;99.90
1429;DHT22;708;51.442;7.016;2024-03-23T16:38:27;10.30;99.90
1429;DHT22;708;51.442;7.016;2024-03-23T16:40:54;10.30;99.90
1429;DHT22;708;51.442;7.016;2024-03-23T16:43:20;10.30;99.90
1429;DHT22;708;51.442;7.016;2024-03-23T16:45:56;10.30;99.90
1429;DHT22;708;51.442;7.016;2024-03-23T16:48:23;10.30;99.90
1429;DHT22;708;51.442;7.016;2024-03-23T16:50:50;10.20;99.90
1429;DHT22;708;51.442;7.016;2024-03-23T16:53:16;10.20;99.90
1429;DHT22;708;51.442;7.016;2024-03-23T16:55:43;10.10;99.90
1429;DHT22;708;51.442;7.016;2024-03-23T16:58:09;9.90;99.90
1429;DHT22;708;51.442;7.016;2024-03-23T17:00:36;9.80;99.90
1429;DHT22;708;51.442;7.016;2024-03-23T17:03:04;9.60;99.90
1429;DHT22;708;51.442;7.016;2024-03-23T17:05:36;9.60;99.90
1429;DHT22;708;51.442;7.016;2024-03-23T17:08:02;9.60;99.90
1429;DHT22;708;51.442;7.016;2024-03-23T17:10:30;9.60;99.90
1429;DHT22;708;51.442;7.016;2024-03-23T17:12:55;9.70;99.90
1429;DHT22;708;51.442;7.016;2024-03-23T17:15:22;9.70;99.90
1429;DHT22;708;51.442;7.016;2024-03-23T17:17:48;9.70;99.90
1429;DHT22;708;51.442;7.016;2024-03-23T17:20:16;9.70;99.90